createdAt,value
2022-08-25T00:00:38.936Z,18.30
2022-08-25T00:04:42.848Z,18.30
2022-08-25T00:08:46.941Z,18.20
2022-08-25T00:12:49.843Z,18.20
2022-08-25T00:16:56.093Z,18.10
2022-08-25T00:20:59.142Z,18.10
2022-08-25T00:25:02.411Z,18.00
2022-08-25T00:29:05.523Z,18.00
2022-08-25T00:33:10.210Z,17.90
2022-08-25T00:37:13.031Z,17.90
2022-08-25T00:41:20.478Z,17.90
2022-08-25T00:45:24.289Z,17.90
2022-08-25T00:49:31.266Z,17.90
2022-08-25T00:53:34.283Z,18.00
2022-08-25T00:57:41.255Z,17.80
2022-08-25T01:01:44.096Z,17.70
2022-08-25T01:05:49.054Z,17.20
2022-08-25T01:09:53.863Z,17.00
2022-08-25T01:13:58.125Z,17.10
2022-08-25T01:18:01.532Z,17.10
2022-08-25T01:22:06.763Z,17.30
2022-08-25T01:26:13.146Z,17.40
2022-08-25T01:30:16.162Z,17.40
2022-08-25T01:34:20.186Z,17.40
2022-08-25T01:38:24.593Z,17.40
2022-08-25T01:42:38.536Z,17.40
2022-08-25T01:46:41.716Z,17.40
2022-08-25T01:50:45.073Z,17.30
2022-08-25T01:54:49.426Z,17.10
2022-08-25T01:58:52.185Z,17.00
2022-08-25T02:02:55.637Z,16.90
2022-08-25T02:06:58.814Z,17.00
2022-08-25T02:11:03.464Z,17.00
2022-08-25T02:15:08.801Z,16.60
2022-08-25T02:19:12.922Z,16.30
2022-08-25T02:23:16.876Z,16.30
2022-08-25T02:27:20.980Z,16.20
2022-08-25T02:31:25.275Z,16.40
2022-08-25T02:35:28.052Z,16.50
2022-08-25T02:39:30.906Z,16.50
2022-08-25T02:43:35.022Z,16.50
2022-08-25T02:47:37.856Z,16.30
2022-08-25T02:51:40.625Z,16.40
2022-08-25T02:55:43.413Z,16.50
2022-08-25T02:59:48.476Z,16.50
2022-08-25T03:03:52.325Z,16.50
2022-08-25T03:07:55.199Z,16.50
2022-08-25T03:11:57.968Z,16.40
2022-08-25T03:16:03.266Z,16.30
2022-08-25T03:20:07.942Z,16.30
2022-08-25T03:24:10.702Z,16.20
2022-08-25T03:28:12.523Z,16.10
2022-08-25T03:32:16.658Z,16.10
2022-08-25T03:36:19.430Z,16.20
2022-08-25T03:40:23.218Z,16.00
2022-08-25T03:44:26.227Z,15.90
2022-08-25T03:48:30.374Z,16.00
2022-08-25T03:52:33.203Z,15.70
2022-08-25T03:56:35.967Z,15.50
2022-08-25T04:00:38.997Z,15.50
2022-08-25T04:04:43.107Z,15.30
2022-08-25T04:08:46.391Z,15.10
2022-08-25T04:12:49.858Z,15.10
2022-08-25T04:16:53.806Z,15.10
2022-08-25T04:21:05.297Z,15.20
2022-08-25T04:25:09.010Z,15.30
2022-08-25T04:29:14.394Z,15.20
2022-08-25T04:33:17.171Z,15.40
2022-08-25T04:37:21.338Z,15.40
2022-08-25T04:41:25.443Z,15.50
2022-08-25T04:45:28.247Z,15.40
2022-08-25T04:49:31.946Z,15.40
2022-08-25T04:53:36.741Z,15.40
2022-08-25T04:57:39.526Z,15.50
2022-08-25T05:01:43.662Z,15.60
2022-08-25T05:05:46.389Z,15.80
2022-08-25T05:09:50.510Z,16.00
2022-08-25T05:13:55.583Z,16.10
2022-08-25T05:17:58.717Z,16.30
2022-08-25T05:22:01.470Z,16.40
2022-08-25T05:26:08.071Z,16.50
2022-08-25T05:30:12.678Z,16.60
2022-08-25T05:34:15.545Z,16.70
2022-08-25T05:38:18.438Z,16.80
2022-08-25T05:42:23.877Z,17.10
2022-08-25T05:46:31.637Z,18.50
2022-08-25T05:50:34.796Z,21.20
2022-08-25T05:54:37.818Z,23.60
2022-08-25T05:58:42.729Z,25.60
2022-08-25T06:02:46.349Z,26.80
2022-08-25T06:06:53.327Z,27.50
2022-08-25T06:10:56.550Z,25.20
2022-08-25T06:15:01.694Z,24.50
2022-08-25T06:19:04.893Z,24.50
2022-08-25T06:23:07.665Z,24.70
2022-08-25T06:27:10.435Z,25.20
2022-08-25T06:31:14.745Z,24.90
2022-08-25T06:35:19.708Z,24.40
2022-08-25T06:39:22.627Z,25.00
2022-08-25T06:43:25.583Z,24.60
2022-08-25T06:47:29.726Z,24.10
2022-08-25T06:51:32.684Z,23.10
2022-08-25T06:55:36.169Z,22.60
2022-08-25T06:59:41.668Z,23.20
2022-08-25T07:03:45.805Z,22.80
2022-08-25T07:07:50.762Z,23.40
2022-08-25T07:11:54.160Z,23.30
2022-08-25T07:15:57.026Z,23.40
2022-08-25T07:20:02.308Z,22.80
2022-08-25T07:24:07.046Z,23.10
2022-08-25T07:28:09.859Z,23.20
2022-08-25T07:32:13.231Z,23.40
2022-08-25T07:36:17.838Z,22.70
2022-08-25T07:40:25.101Z,22.20
2022-08-25T07:44:28.670Z,22.50
2022-08-25T07:48:31.496Z,22.80
2022-08-25T07:52:35.710Z,23.70
2022-08-25T07:56:43.059Z,24.80
2022-08-25T08:00:49.330Z,24.50
2022-08-25T08:04:54.514Z,24.90
2022-08-25T08:08:59.811Z,25.50
2022-08-25T08:13:03.180Z,25.70
2022-08-25T08:17:07.946Z,28.50
2022-08-25T08:21:13.242Z,29.60
2022-08-25T08:25:26.573Z,28.80
2022-08-25T08:29:30.539Z,31.50
2022-08-25T08:33:40.869Z,35.30
2022-08-25T08:37:43.817Z,38.20
2022-08-25T08:42:22.151Z,40.00
2022-08-25T08:46:26.856Z,41.30
2022-08-25T08:50:33.825Z,40.20
2022-08-25T08:54:41.281Z,38.30
2022-08-25T08:58:50.748Z,37.00
2022-08-25T09:03:01.725Z,39.00
2022-08-25T09:07:13.086Z,34.30
2022-08-25T09:11:27.066Z,37.00
2022-08-25T09:16:09.647Z,34.80
2022-08-25T09:20:38.783Z,35.10
2022-08-25T09:24:55.225Z,34.90
2022-08-25T09:29:03.258Z,35.10
2022-08-25T09:33:21.714Z,33.40
2022-08-25T09:37:25.497Z,33.70
2022-08-25T09:41:44.950Z,32.80
2022-08-25T09:45:49.867Z,33.20
2022-08-25T09:50:00.262Z,32.70
2022-08-25T09:54:10.589Z,30.00
2022-08-25T09:58:19.074Z,30.90
2022-08-25T10:02:25.242Z,32.40
2022-08-25T10:06:34.539Z,31.40
2022-08-25T10:10:44.773Z,32.50
2022-08-25T10:14:48.622Z,29.60
2022-08-25T10:19:09.910Z,32.10
2022-08-25T10:23:15.871Z,31.90
2022-08-25T10:27:24.590Z,30.60
2022-08-25T10:31:36.811Z,31.80
2022-08-25T10:35:58.546Z,33.00
2022-08-25T10:40:16.736Z,31.70
2022-08-25T10:44:43.011Z,31.90
2022-08-25T10:48:57.121Z,31.60
2022-08-25T10:53:17.990Z,31.50
2022-08-25T10:57:28.866Z,32.80
2022-08-25T11:01:44.077Z,33.10
2022-08-25T11:05:54.461Z,32.40
2022-08-25T11:10:04.085Z,32.40
2022-08-25T11:14:11.619Z,30.30
2022-08-25T11:18:15.850Z,31.50
2022-08-25T11:22:24.546Z,32.00
2022-08-25T11:26:37.045Z,32.30
2022-08-25T11:30:42.191Z,32.10
2022-08-25T11:34:45.109Z,34.40
2022-08-25T11:38:55.270Z,33.80
2022-08-25T11:43:08.252Z,33.30
2022-08-25T11:47:36.046Z,34.60
2022-08-25T11:51:43.774Z,37.10
2022-08-25T11:55:52.232Z,41.30
2022-08-25T12:00:07.946Z,39.90
2022-08-25T12:04:33.506Z,40.20
2022-08-25T12:08:51.627Z,39.00
2022-08-25T12:13:16.598Z,46.10
2022-08-25T12:17:25.857Z,50.00
2022-08-25T12:21:34.419Z,48.60
2022-08-25T12:26:04.006Z,42.30
2022-08-25T12:30:18.460Z,42.30
2022-08-25T12:34:43.715Z,45.60
2022-08-25T12:38:52.450Z,49.40
2022-08-25T12:43:04.523Z,49.10
2022-08-25T12:47:14.241Z,51.60
2022-08-25T12:51:19.953Z,50.30
2022-08-25T12:55:28.074Z,46.40
2022-08-25T12:59:38.116Z,43.90
2022-08-25T13:04:05.724Z,38.80
2022-08-25T13:08:33.736Z,42.70
2022-08-25T13:12:44.162Z,39.10
2022-08-25T13:16:55.294Z,39.50
2022-08-25T13:21:06.771Z,36.90
2022-08-25T13:25:17.862Z,38.50
2022-08-25T13:29:29.364Z,38.70
2022-08-25T13:33:38.994Z,34.00
2022-08-25T13:37:43.723Z,34.70
2022-08-25T13:41:48.842Z,40.20
2022-08-25T13:45:59.778Z,40.30
2022-08-25T13:50:18.858Z,40.70
2022-08-25T13:54:27.321Z,37.90
2022-08-25T13:58:38.624Z,37.60
2022-08-25T14:02:51.307Z,37.90
2022-08-25T14:07:15.170Z,36.50
2022-08-25T14:11:34.304Z,35.20
2022-08-25T14:15:38.342Z,36.30
2022-08-25T14:19:47.621Z,35.10
2022-08-25T14:23:50.610Z,33.70
2022-08-25T14:28:13.828Z,32.80
2022-08-25T14:32:17.887Z,32.30
2022-08-25T14:36:22.203Z,33.30
2022-08-25T14:40:25.215Z,32.30
2022-08-25T14:44:27.965Z,31.20
2022-08-25T14:48:35.414Z,31.90
2022-08-25T14:52:39.542Z,30.70
2022-08-25T14:56:43.413Z,30.70
2022-08-25T15:00:48.083Z,30.80
2022-08-25T15:04:53.541Z,31.20
2022-08-25T15:09:11.375Z,31.90
2022-08-25T15:13:15.034Z,31.50
2022-08-25T15:17:18.532Z,30.70
2022-08-25T15:21:21.350Z,31.20
2022-08-25T15:25:25.483Z,31.20
2022-08-25T15:29:30.615Z,31.70
2022-08-25T15:33:33.387Z,31.20
2022-08-25T15:37:36.714Z,31.30
2022-08-25T15:41:42.757Z,30.90
2022-08-25T15:45:46.498Z,30.40
2022-08-25T15:49:49.441Z,30.90
2022-08-25T15:53:53.012Z,30.70
2022-08-25T15:57:58.062Z,30.40
2022-08-25T16:02:01.147Z,30.70
2022-08-25T16:06:05.089Z,29.80
2022-08-25T16:10:08.370Z,29.10
2022-08-25T16:14:12.827Z,28.50
2022-08-25T16:18:17.797Z,28.40
2022-08-25T16:22:20.731Z,28.60
2022-08-25T16:26:24.367Z,29.10
2022-08-25T16:30:28.585Z,29.40
2022-08-25T16:34:32.406Z,28.70
2022-08-25T16:38:37.963Z,28.30
2022-08-25T16:42:41.155Z,28.50
2022-08-25T16:46:45.499Z,28.90
2022-08-25T16:50:49.599Z,28.80
2022-08-25T16:55:10.046Z,28.70
2022-08-25T16:59:13.775Z,28.40
2022-08-25T17:03:18.591Z,28.40
2022-08-25T17:07:23.931Z,28.40
2022-08-25T17:11:29.470Z,28.40
2022-08-25T17:15:32.269Z,28.30
2022-08-25T17:19:36.422Z,28.20
2022-08-25T17:23:40.151Z,27.90
2022-08-25T17:27:43.959Z,27.70
2022-08-25T17:31:48.394Z,27.60
2022-08-25T17:35:55.163Z,27.30
2022-08-25T17:40:02.963Z,27.00
2022-08-25T17:44:07.174Z,26.80
2022-08-25T17:48:10.214Z,26.50
2022-08-25T17:52:14.687Z,26.20
2022-08-25T17:56:21.057Z,26.10
2022-08-25T18:00:24.754Z,25.90
2022-08-25T18:04:29.705Z,26.00
2022-08-25T18:08:35.074Z,25.80
2022-08-25T18:12:38.810Z,25.70
2022-08-25T18:16:42.238Z,25.60
2022-08-25T18:20:47.107Z,25.50
2022-08-25T18:24:51.847Z,25.60
2022-08-25T18:28:54.677Z,25.40
2022-08-25T18:32:58.755Z,25.50
2022-08-25T18:37:22.151Z,25.40
2022-08-25T18:41:29.681Z,25.40
2022-08-25T18:45:35.157Z,25.30
2022-08-25T18:49:38.352Z,25.30
2022-08-25T18:53:50.263Z,25.20
2022-08-25T18:57:55.296Z,25.20
2022-08-25T19:02:00.567Z,25.20
2022-08-25T19:06:06.384Z,25.10
2022-08-25T19:10:09.842Z,24.90
2022-08-25T19:14:14.149Z,24.90
2022-08-25T19:18:17.221Z,24.80
2022-08-25T19:22:40.231Z,24.80
2022-08-25T19:26:44.786Z,24.70
2022-08-25T19:30:50.541Z,24.60
2022-08-25T19:34:54.752Z,24.40
2022-08-25T19:39:00.461Z,24.30
2022-08-25T19:43:03.270Z,24.20
2022-08-25T19:47:09.193Z,24.20
2022-08-25T19:51:16.784Z,24.00
2022-08-25T19:55:24.668Z,24.00
2022-08-25T19:59:34.162Z,23.90
2022-08-25T20:03:46.939Z,23.80
2022-08-25T20:07:50.154Z,23.70
2022-08-25T20:11:53.435Z,23.60
2022-08-25T20:15:56.262Z,23.60
2022-08-25T20:20:09.700Z,23.60
2022-08-25T20:24:30.931Z,23.70
2022-08-25T20:28:33.598Z,23.80
2022-08-25T20:32:39.510Z,23.80
2022-08-25T20:36:49.900Z,23.70
2022-08-25T20:40:53.259Z,23.80
2022-08-25T20:44:56.100Z,23.80
2022-08-25T20:48:58.863Z,23.70
2022-08-25T20:53:05.663Z,23.60
2022-08-25T20:57:15.704Z,23.60
2022-08-25T21:01:23.167Z,23.50
2022-08-25T21:05:26.206Z,23.40
2022-08-25T21:09:30.852Z,23.30
2022-08-25T21:13:33.652Z,23.20
2022-08-25T21:17:37.454Z,23.10
2022-08-25T21:21:40.426Z,23.10
2022-08-25T21:25:44.511Z,23.00
2022-08-25T21:29:54.601Z,23.00
2022-08-25T21:33:59.317Z,22.90
2022-08-25T21:38:03.518Z,22.90
2022-08-25T21:42:08.095Z,22.70
2022-08-25T21:46:13.305Z,22.80
2022-08-25T21:50:16.195Z,22.70
2022-08-25T21:54:19.553Z,22.70
2022-08-25T21:58:28.179Z,22.60
2022-08-25T22:02:31.766Z,22.60
2022-08-25T22:06:35.848Z,22.50
2022-08-25T22:10:44.298Z,22.50
2022-08-25T22:14:48.597Z,22.50
2022-08-25T22:18:51.639Z,22.40
2022-08-25T22:22:54.391Z,22.40
2022-08-25T22:26:57.687Z,22.20
2022-08-25T22:31:04.736Z,22.10
2022-08-25T22:35:11.210Z,21.90
2022-08-25T22:39:15.762Z,22.00
2022-08-25T22:43:18.657Z,21.90
2022-08-25T22:47:22.773Z,22.00
2022-08-25T22:51:27.585Z,21.90
2022-08-25T22:55:30.532Z,22.00
2022-08-25T22:59:33.333Z,22.00
2022-08-25T23:03:37.494Z,21.90
2022-08-25T23:07:47.142Z,21.90
2022-08-25T23:11:51.260Z,21.80
2022-08-25T23:15:54.212Z,21.80
2022-08-25T23:19:58.446Z,21.70
2022-08-25T23:24:01.402Z,21.60
2022-08-25T23:28:04.977Z,21.40
2022-08-25T23:32:08.263Z,21.00
2022-08-25T23:36:15.212Z,21.10
2022-08-25T23:40:20.049Z,21.20
2022-08-25T23:44:24.551Z,21.10
2022-08-25T23:48:29.053Z,21.00
2022-08-25T23:52:33.358Z,21.00
2022-08-25T23:56:36.537Z,21.10
